sensor_id;sensor_type;location;lat;lon;timestamp;temperature;humidity
28845;DHT22;15976;47.938;7.758;2024-01-30T00:01:17;9.20;59.80
28845;DHT22;15976;47.938;7.758;2024-01-30T00:03:44;9.20;59.60
28845;DHT22;15976;47.938;7.758;2024-01-30T00:06:11;9.20;59.50
28845;DHT22;15976;47.938;7.758;2024-01-30T00:08:38;9.30;59.50
28845;DHT22;15976;47.938;7.758;2024-01-30T00:11:07;9.30;59.60
28845;DHT22;15976;47.938;7.758;2024-01-30T00:13:34;9.20;59.50
28845;DHT22;15976;47.938;7.758;2024-01-30T00:16:01;9.20;59.60
28845;DHT22;15976;47.938;7.758;2024-01-30T00:18:28;9.20;59.60
28845;DHT22;15976;47.938;7.758;2024-01-30T00:20:56;9.20;59.60
28845;DHT22;15976;47.938;7.758;2024-01-30T00:23:23;9.20;59.50
28845;DHT22;15976;47.938;7.758;2024-01-30T00:25:50;9.20;59.50
28845;DHT22;15976;47.938;7.758;2024-01-30T00:28:17;9.20;59.60
28845;DHT22;15976;47.938;7.758;2024-01-30T00:30:44;9.20;59.60
28845;DHT22;15976;47.938;7.758;2024-01-30T00:33:11;9.20;59.60
28845;DHT22;15976;47.938;7.758;2024-01-30T00:35:38;9.10;59.70
28845;DHT22;15976;47.938;7.758;2024-01-30T00:38:05;9.10;60.00
28845;DHT22;15976;47.938;7.758;2024-01-30T00:40:34;9.10;60.10
28845;DHT22;15976;47.938;7.758;2024-01-30T00:43:01;9.00;60.90
28845;DHT22;15976;47.938;7.758;2024-01-30T00:45:28;9.00;60.20
28845;DHT22;15976;47.938;7.758;2024-01-30T00:47:55;9.00;60.30
28845;DHT22;15976;47.938;7.758;2024-01-30T00:50:22;9.00;60.20
28845;DHT22;15976;47.938;7.758;2024-01-30T00:52:49;9.00;60.20
28845;DHT22;15976;47.938;7.758;2024-01-30T00:55:16;9.00;60.20
28845;DHT22;15976;47.938;7.758;2024-01-30T00:57:44;9.00;60.20
28845;DHT22;15976;47.938;7.758;2024-01-30T01:00:12;8.90;60.30
28845;DHT22;15976;47.938;7.758;2024-01-30T01:02:39;9.00;60.20
28845;DHT22;15976;47.938;7.758;2024-01-30T01:05:07;9.00;59.60
28845;DHT22;15976;47.938;7.758;2024-01-30T01:07:34;9.10;59.20
28845;DHT22;15976;47.938;7.758;2024-01-30T01:10:01;9.20;58.80
28845;DHT22;15976;47.938;7.758;2024-01-30T01:12:29;9.30;58.50
28845;DHT22;15976;47.938;7.758;2024-01-30T01:14:56;9.40;58.30
28845;DHT22;15976;47.938;7.758;2024-01-30T01:17:24;9.40;58.10
28845;DHT22;15976;47.938;7.758;2024-01-30T01:19:52;9.50;57.80
28845;DHT22;15976;47.938;7.758;2024-01-30T01:22:19;9.60;57.30
28845;DHT22;15976;47.938;7.758;2024-01-30T01:24:46;9.60;57.20
28845;DHT22;15976;47.938;7.758;2024-01-30T01:27:13;9.70;57.10
28845;DHT22;15976;47.938;7.758;2024-01-30T01:29:40;9.80;57.00
28845;DHT22;15976;47.938;7.758;2024-01-30T01:32:07;9.80;56.70
28845;DHT22;15976;47.938;7.758;2024-01-30T01:34:34;9.80;56.70
28845;DHT22;15976;47.938;7.758;2024-01-30T01:37:01;9.90;56.40
28845;DHT22;15976;47.938;7.758;2024-01-30T01:39:28;9.90;56.30
28845;DHT22;15976;47.938;7.758;2024-01-30T01:41:55;10.00;56.20
28845;DHT22;15976;47.938;7.758;2024-01-30T01:44:23;9.90;56.20
28845;DHT22;15976;47.938;7.758;2024-01-30T01:46:51;9.90;56.30
28845;DHT22;15976;47.938;7.758;2024-01-30T01:49:20;9.80;56.50
28845;DHT22;15976;47.938;7.758;2024-01-30T01:51:48;9.80;56.50
28845;DHT22;15976;47.938;7.758;2024-01-30T01:54:15;9.80;56.70
28845;DHT22;15976;47.938;7.758;2024-01-30T01:56:43;9.80;56.80
28845;DHT22;15976;47.938;7.758;2024-01-30T01:59:10;9.70;56.90
28845;DHT22;15976;47.938;7.758;2024-01-30T02:01:38;9.70;57.20
28845;DHT22;15976;47.938;7.758;2024-01-30T02:04:06;9.60;57.40
28845;DHT22;15976;47.938;7.758;2024-01-30T02:06:34;9.60;57.70
28845;DHT22;15976;47.938;7.758;2024-01-30T02:09:01;9.50;57.80
28845;DHT22;15976;47.938;7.758;2024-01-30T02:11:28;9.50;57.80
28845;DHT22;15976;47.938;7.758;2024-01-30T02:13:55;9.50;57.70
28845;DHT22;15976;47.938;7.758;2024-01-30T02:16:23;9.50;57.60
28845;DHT22;15976;47.938;7.758;2024-01-30T02:18:50;9.60;57.40
28845;DHT22;15976;47.938;7.758;2024-01-30T02:21:18;9.60;57.40
28845;DHT22;15976;47.938;7.758;2024-01-30T02:23:47;9.60;57.50
28845;DHT22;15976;47.938;7.758;2024-01-30T02:26:15;9.60;57.70
28845;DHT22;15976;47.938;7.758;2024-01-30T02:28:42;9.50;57.80
28845;DHT22;15976;47.938;7.758;2024-01-30T02:31:09;9.50;58.00
28845;DHT22;15976;47.938;7.758;2024-01-30T02:33:36;9.40;58.20
28845;DHT22;15976;47.938;7.758;2024-01-30T02:36:03;9.40;58.40
28845;DHT22;15976;47.938;7.758;2024-01-30T02:38:31;9.40;58.40
28845;DHT22;15976;47.938;7.758;2024-01-30T02:40:57;9.30;58.40
28845;DHT22;15976;47.938;7.758;2024-01-30T02:43:25;9.30;58.50
28845;DHT22;15976;47.938;7.758;2024-01-30T02:45:52;9.30;58.70
28845;DHT22;15976;47.938;7.758;2024-01-30T02:48:19;9.30;58.90
28845;DHT22;15976;47.938;7.758;2024-01-30T02:50:47;9.30;58.90
28845;DHT22;15976;47.938;7.758;2024-01-30T02:53:13;9.30;58.90
28845;DHT22;15976;47.938;7.758;2024-01-30T02:55:41;9.30;58.80
28845;DHT22;15976;47.938;7.758;2024-01-30T02:58:08;9.30;58.90
28845;DHT22;15976;47.938;7.758;2024-01-30T03:00:35;9.30;58.90
28845;DHT22;15976;47.938;7.758;2024-01-30T03:03:02;9.30;59.00
28845;DHT22;15976;47.938;7.758;2024-01-30T03:05:29;9.30;59.00
28845;DHT22;15976;47.938;7.758;2024-01-30T03:07:56;9.20;59.00
28845;DHT22;15976;47.938;7.758;2024-01-30T03:10:24;9.20;59.10
28845;DHT22;15976;47.938;7.758;2024-01-30T03:12:51;9.20;59.20
28845;DHT22;15976;47.938;7.758;2024-01-30T03:15:18;9.30;59.10
28845;DHT22;15976;47.938;7.758;2024-01-30T03:17:45;9.30;58.90
28845;DHT22;15976;47.938;7.758;2024-01-30T03:20:12;9.30;58.70
28845;DHT22;15976;47.938;7.758;2024-01-30T03:22:39;9.40;58.50
28845;DHT22;15976;47.938;7.758;2024-01-30T03:25:06;9.40;58.40
28845;DHT22;15976;47.938;7.758;2024-01-30T03:27:33;9.40;58.20
28845;DHT22;15976;47.938;7.758;2024-01-30T03:30:00;9.50;58.20
28845;DHT22;15976;47.938;7.758;2024-01-30T03:32:28;9.50;58.20
28845;DHT22;15976;47.938;7.758;2024-01-30T03:34:55;9.50;58.20
28845;DHT22;15976;47.938;7.758;2024-01-30T03:37:22;9.50;58.10
28845;DHT22;15976;47.938;7.758;2024-01-30T03:39:49;9.50;58.00
28845;DHT22;15976;47.938;7.758;2024-01-30T03:42:16;9.50;58.50
28845;DHT22;15976;47.938;7.758;2024-01-30T03:44:43;9.50;57.90
28845;DHT22;15976;47.938;7.758;2024-01-30T03:47:11;9.50;58.00
28845;DHT22;15976;47.938;7.758;2024-01-30T03:49:38;9.50;57.90
28845;DHT22;15976;47.938;7.758;2024-01-30T03:52:05;9.50;58.10
28845;DHT22;15976;47.938;7.758;2024-01-30T03:54:32;9.50;58.10
28845;DHT22;15976;47.938;7.758;2024-01-30T03:56:59;9.60;58.10
28845;DHT22;15976;47.938;7.758;2024-01-30T03:59:26;9.60;57.90
28845;DHT22;15976;47.938;7.758;2024-01-30T04:01:54;9.60;57.80
28845;DHT22;15976;47.938;7.758;2024-01-30T04:04:22;9.60;57.70
28845;DHT22;15976;47.938;7.758;2024-01-30T04:06:49;9.70;57.80
28845;DHT22;15976;47.938;7.758;2024-01-30T04:09:17;9.80;57.60
28845;DHT22;15976;47.938;7.758;2024-01-30T04:11:44;9.90;57.00
28845;DHT22;15976;47.938;7.758;2024-01-30T04:14:11;10.00;56.60
28845;DHT22;15976;47.938;7.758;2024-01-30T04:16:37;10.20;56.20
28845;DHT22;15976;47.938;7.758;2024-01-30T04:19:04;10.30;55.90
28845;DHT22;15976;47.938;7.758;2024-01-30T04:21:31;10.30;55.90
28845;DHT22;15976;47.938;7.758;2024-01-30T04:23:58;10.30;55.90
28845;DHT22;15976;47.938;7.758;2024-01-30T04:26:25;10.30;55.60
28845;DHT22;15976;47.938;7.758;2024-01-30T04:28:52;10.30;55.40
28845;DHT22;15976;47.938;7.758;2024-01-30T04:31:19;10.40;55.40
28845;DHT22;15976;47.938;7.758;2024-01-30T04:33:47;10.40;55.20
28845;DHT22;15976;47.938;7.758;2024-01-30T04:36:14;10.50;54.90
28845;DHT22;15976;47.938;7.758;2024-01-30T04:38:41;10.60;54.60
28845;DHT22;15976;47.938;7.758;2024-01-30T04:41:08;10.60;54.50
28845;DHT22;15976;47.938;7.758;2024-01-30T04:43:35;10.60;54.30
28845;DHT22;15976;47.938;7.758;2024-01-30T04:46:02;10.70;54.10
28845;DHT22;15976;47.938;7.758;2024-01-30T04:48:29;10.70;54.00
28845;DHT22;15976;47.938;7.758;2024-01-30T04:50:58;10.70;54.00
28845;DHT22;15976;47.938;7.758;2024-01-30T04:53:25;10.70;54.00
28845;DHT22;15976;47.938;7.758;2024-01-30T04:55:52;10.70;53.90
28845;DHT22;15976;47.938;7.758;2024-01-30T04:58:19;10.70;53.80
28845;DHT22;15976;47.938;7.758;2024-01-30T05:00:46;10.70;53.50
28845;DHT22;15976;47.938;7.758;2024-01-30T05:03:15;10.70;53.30
28845;DHT22;15976;47.938;7.758;2024-01-30T05:05:43;10.80;53.20
28845;DHT22;15976;47.938;7.758;2024-01-30T05:08:10;10.80;53.20
28845;DHT22;15976;47.938;7.758;2024-01-30T05:10:37;10.80;53.20
28845;DHT22;15976;47.938;7.758;2024-01-30T05:13:04;10.80;53.20
28845;DHT22;15976;47.938;7.758;2024-01-30T05:15:32;10.90;53.20
28845;DHT22;15976;47.938;7.758;2024-01-30T05:17:59;10.90;53.20
28845;DHT22;15976;47.938;7.758;2024-01-30T05:20:26;10.80;53.20
28845;DHT22;15976;47.938;7.758;2024-01-30T05:22:56;10.80;53.20
28845;DHT22;15976;47.938;7.758;2024-01-30T05:25:23;10.80;53.30
28845;DHT22;15976;47.938;7.758;2024-01-30T05:27:50;10.80;53.40
28845;DHT22;15976;47.938;7.758;2024-01-30T05:30:17;10.80;53.40
28845;DHT22;15976;47.938;7.758;2024-01-30T05:32:45;10.80;53.40
28845;DHT22;15976;47.938;7.758;2024-01-30T05:35:12;10.80;53.50
28845;DHT22;15976;47.938;7.758;2024-01-30T05:37:39;10.80;53.50
28845;DHT22;15976;47.938;7.758;2024-01-30T05:40:06;10.80;53.60
28845;DHT22;15976;47.938;7.758;2024-01-30T05:42:33;10.80;53.70
28845;DHT22;15976;47.938;7.758;2024-01-30T05:45:00;10.70;53.80
28845;DHT22;15976;47.938;7.758;2024-01-30T05:47:27;10.70;53.90
28845;DHT22;15976;47.938;7.758;2024-01-30T05:49:54;10.70;54.00
28845;DHT22;15976;47.938;7.758;2024-01-30T05:52:24;10.70;54.30
28845;DHT22;15976;47.938;7.758;2024-01-30T05:54:52;10.70;54.30
28845;DHT22;15976;47.938;7.758;2024-01-30T05:57:19;10.60;54.30
28845;DHT22;15976;47.938;7.758;2024-01-30T05:59:46;10.70;54.40
28845;DHT22;15976;47.938;7.758;2024-01-30T06:02:14;10.70;54.40
28845;DHT22;15976;47.938;7.758;2024-01-30T06:04:42;10.60;54.50
28845;DHT22;15976;47.938;7.758;2024-01-30T06:07:11;10.60;54.70
28845;DHT22;15976;47.938;7.758;2024-01-30T06:09:39;10.60;54.80
28845;DHT22;15976;47.938;7.758;2024-01-30T06:12:07;10.50;55.00
28845;DHT22;15976;47.938;7.758;2024-01-30T06:14:35;10.50;55.10
28845;DHT22;15976;47.938;7.758;2024-01-30T06:17:02;10.50;55.10
28845;DHT22;15976;47.938;7.758;2024-01-30T06:19:29;10.50;55.20
28845;DHT22;15976;47.938;7.758;2024-01-30T06:21:56;10.50;55.20
28845;DHT22;15976;47.938;7.758;2024-01-30T06:24:23;10.50;55.20
28845;DHT22;15976;47.938;7.758;2024-01-30T06:26:50;10.50;55.20
28845;DHT22;15976;47.938;7.758;2024-01-30T06:29:17;10.50;55.30
28845;DHT22;15976;47.938;7.758;2024-01-30T06:31:46;10.50;55.40
28845;DHT22;15976;47.938;7.758;2024-01-30T06:34:13;10.40;55.50
28845;DHT22;15976;47.938;7.758;2024-01-30T06:36:40;10.40;55.60
28845;DHT22;15976;47.938;7.758;2024-01-30T06:39:08;10.40;55.60
28845;DHT22;15976;47.938;7.758;2024-01-30T06:41:35;10.40;55.70
28845;DHT22;15976;47.938;7.758;2024-01-30T06:44:02;10.40;55.80
28845;DHT22;15976;47.938;7.758;2024-01-30T06:46:31;10.30;55.80
28845;DHT22;15976;47.938;7.758;2024-01-30T06:48:59;10.30;55.90
28845;DHT22;15976;47.938;7.758;2024-01-30T06:51:26;10.30;56.00
28845;DHT22;15976;47.938;7.758;2024-01-30T06:53:53;10.30;56.00
28845;DHT22;15976;47.938;7.758;2024-01-30T06:56:20;10.30;56.10
28845;DHT22;15976;47.938;7.758;2024-01-30T06:58:48;10.30;56.00
28845;DHT22;15976;47.938;7.758;2024-01-30T07:01:16;10.30;56.10
28845;DHT22;15976;47.938;7.758;2024-01-30T07:03:43;10.30;56.10
28845;DHT22;15976;47.938;7.758;2024-01-30T07:06:11;10.30;56.10
28845;DHT22;15976;47.938;7.758;2024-01-30T07:08:38;10.30;56.10
28845;DHT22;15976;47.938;7.758;2024-01-30T07:11:06;10.30;56.10
28845;DHT22;15976;47.938;7.758;2024-01-30T07:13:34;10.30;56.20
28845;DHT22;15976;47.938;7.758;2024-01-30T07:16:02;10.40;56.20
28845;DHT22;15976;47.938;7.758;2024-01-30T07:18:29;10.30;56.20
28845;DHT22;15976;47.938;7.758;2024-01-30T07:20:56;10.40;56.20
28845;DHT22;15976;47.938;7.758;2024-01-30T07:23:23;10.40;56.20
28845;DHT22;15976;47.938;7.758;2024-01-30T07:25:50;10.40;56.20
28845;DHT22;15976;47.938;7.758;2024-01-30T07:28:17;10.40;56.10
28845;DHT22;15976;47.938;7.758;2024-01-30T07:30:45;10.40;56.00
28845;DHT22;15976;47.938;7.758;2024-01-30T07:33:12;10.50;56.00
28845;DHT22;15976;47.938;7.758;2024-01-30T07:35:40;10.50;55.90
28845;DHT22;15976;47.938;7.758;2024-01-30T07:38:07;10.60;55.80
28845;DHT22;15976;47.938;7.758;2024-01-30T07:40:34;10.60;55.70
28845;DHT22;15976;47.938;7.758;2024-01-30T07:43:01;10.70;55.70
28845;DHT22;15976;47.938;7.758;2024-01-30T07:45:30;10.70;55.60
28845;DHT22;15976;47.938;7.758;2024-01-30T07:47:59;10.80;55.50
28845;DHT22;15976;47.938;7.758;2024-01-30T07:50:27;10.80;55.40
28845;DHT22;15976;47.938;7.758;2024-01-30T07:52:56;10.90;55.40
28845;DHT22;15976;47.938;7.758;2024-01-30T07:55:23;11.00;55.30
28845;DHT22;15976;47.938;7.758;2024-01-30T07:57:59;11.00;55.10
28845;DHT22;15976;47.938;7.758;2024-01-30T08:00:27;11.00;55.10
28845;DHT22;15976;47.938;7.758;2024-01-30T08:02:56;11.10;55.00
28845;DHT22;15976;47.938;7.758;2024-01-30T08:05:24;11.10;54.80
28845;DHT22;15976;47.938;7.758;2024-01-30T08:07:51;11.20;54.80
28845;DHT22;15976;47.938;7.758;2024-01-30T08:10:18;11.30;54.80
28845;DHT22;15976;47.938;7.758;2024-01-30T08:12:46;11.30;54.70
28845;DHT22;15976;47.938;7.758;2024-01-30T08:15:13;11.40;54.60
28845;DHT22;15976;47.938;7.758;2024-01-30T08:17:40;11.40;54.50
28845;DHT22;15976;47.938;7.758;2024-01-30T08:20:08;11.40;54.50
28845;DHT22;15976;47.938;7.758;2024-01-30T08:22:38;11.40;54.40
28845;DHT22;15976;47.938;7.758;2024-01-30T08:25:07;11.50;54.50
28845;DHT22;15976;47.938;7.758;2024-01-30T08:27:35;11.60;54.40
28845;DHT22;15976;47.938;7.758;2024-01-30T08:30:05;11.60;54.50
28845;DHT22;15976;47.938;7.758;2024-01-30T08:32:33;11.60;54.40
28845;DHT22;15976;47.938;7.758;2024-01-30T08:35:00;11.60;54.40
28845;DHT22;15976;47.938;7.758;2024-01-30T08:37:30;11.70;54.30
28845;DHT22;15976;47.938;7.758;2024-01-30T08:39:57;11.70;54.20
28845;DHT22;15976;47.938;7.758;2024-01-30T08:42:25;11.70;54.10
28845;DHT22;15976;47.938;7.758;2024-01-30T08:44:52;11.80;54.20
28845;DHT22;15976;47.938;7.758;2024-01-30T08:47:20;11.80;54.20
28845;DHT22;15976;47.938;7.758;2024-01-30T08:49:47;11.80;54.10
28845;DHT22;15976;47.938;7.758;2024-01-30T08:52:14;11.90;54.00
28845;DHT22;15976;47.938;7.758;2024-01-30T08:54:41;11.90;53.80
28845;DHT22;15976;47.938;7.758;2024-01-30T08:57:08;11.90;53.50
28845;DHT22;15976;47.938;7.758;2024-01-30T08:59:35;12.00;53.50
28845;DHT22;15976;47.938;7.758;2024-01-30T09:02:02;12.00;53.50
28845;DHT22;15976;47.938;7.758;2024-01-30T09:04:39;12.10;53.40
28845;DHT22;15976;47.938;7.758;2024-01-30T09:07:08;12.10;53.20
28845;DHT22;15976;47.938;7.758;2024-01-30T09:09:40;12.20;53.10
28845;DHT22;15976;47.938;7.758;2024-01-30T09:12:08;12.20;53.00
28845;DHT22;15976;47.938;7.758;2024-01-30T09:14:37;12.20;53.10
28845;DHT22;15976;47.938;7.758;2024-01-30T09:17:04;12.30;53.00
28845;DHT22;15976;47.938;7.758;2024-01-30T09:19:31;12.30;52.90
28845;DHT22;15976;47.938;7.758;2024-01-30T09:21:59;12.30;52.80
28845;DHT22;15976;47.938;7.758;2024-01-30T09:24:27;12.40;52.70
28845;DHT22;15976;47.938;7.758;2024-01-30T09:26:54;12.40;52.70
28845;DHT22;15976;47.938;7.758;2024-01-30T09:29:21;12.40;52.60
28845;DHT22;15976;47.938;7.758;2024-01-30T09:31:48;12.40;52.60
28845;DHT22;15976;47.938;7.758;2024-01-30T09:34:15;12.40;52.40
28845;DHT22;15976;47.938;7.758;2024-01-30T09:36:43;12.40;52.40
28845;DHT22;15976;47.938;7.758;2024-01-30T09:39:10;12.40;52.50
28845;DHT22;15976;47.938;7.758;2024-01-30T09:41:49;12.40;52.40
28845;DHT22;15976;47.938;7.758;2024-01-30T09:44:20;12.50;52.50
28845;DHT22;15976;47.938;7.758;2024-01-30T09:46:48;12.50;52.50
28845;DHT22;15976;47.938;7.758;2024-01-30T09:49:16;12.50;52.50
28845;DHT22;15976;47.938;7.758;2024-01-30T09:51:47;12.60;52.60
28845;DHT22;15976;47.938;7.758;2024-01-30T09:54:15;12.60;52.60
28845;DHT22;15976;47.938;7.758;2024-01-30T09:56:43;12.60;52.50
28845;DHT22;15976;47.938;7.758;2024-01-30T09:59:10;12.60;52.50
28845;DHT22;15976;47.938;7.758;2024-01-30T10:01:38;12.70;52.60
28845;DHT22;15976;47.938;7.758;2024-01-30T10:04:06;12.60;52.70
28845;DHT22;15976;47.938;7.758;2024-01-30T10:06:34;12.70;52.70
28845;DHT22;15976;47.938;7.758;2024-01-30T10:09:01;12.70;52.60
28845;DHT22;15976;47.938;7.758;2024-01-30T10:11:28;12.70;52.40
28845;DHT22;15976;47.938;7.758;2024-01-30T10:13:55;12.80;52.40
28845;DHT22;15976;47.938;7.758;2024-01-30T10:16:23;12.80;52.40
28845;DHT22;15976;47.938;7.758;2024-01-30T10:18:51;12.70;52.20
28845;DHT22;15976;47.938;7.758;2024-01-30T10:21:18;12.80;52.20
28845;DHT22;15976;47.938;7.758;2024-01-30T10:23:45;12.80;52.20
28845;DHT22;15976;47.938;7.758;2024-01-30T10:26:12;12.80;52.00
28845;DHT22;15976;47.938;7.758;2024-01-30T10:28:39;12.80;51.90
28845;DHT22;15976;47.938;7.758;2024-01-30T10:31:06;12.90;51.60
28845;DHT22;15976;47.938;7.758;2024-01-30T10:33:33;12.90;51.40
28845;DHT22;15976;47.938;7.758;2024-01-30T10:36:03;13.00;51.10
28845;DHT22;15976;47.938;7.758;2024-01-30T10:38:32;13.00;50.80
28845;DHT22;15976;47.938;7.758;2024-01-30T10:41:01;13.10;50.70
28845;DHT22;15976;47.938;7.758;2024-01-30T10:43:32;13.10;50.50
28845;DHT22;15976;47.938;7.758;2024-01-30T10:46:13;13.10;50.40
28845;DHT22;15976;47.938;7.758;2024-01-30T10:48:44;13.10;50.30
28845;DHT22;15976;47.938;7.758;2024-01-30T10:51:16;13.10;50.00
28845;DHT22;15976;47.938;7.758;2024-01-30T10:53:46;13.10;49.80
28845;DHT22;15976;47.938;7.758;2024-01-30T10:56:14;13.20;49.60
28845;DHT22;15976;47.938;7.758;2024-01-30T10:58:42;13.10;49.40
28845;DHT22;15976;47.938;7.758;2024-01-30T11:01:10;13.20;49.30
28845;DHT22;15976;47.938;7.758;2024-01-30T11:03:37;13.20;49.00
28845;DHT22;15976;47.938;7.758;2024-01-30T11:06:04;13.20;48.70
28845;DHT22;15976;47.938;7.758;2024-01-30T11:08:32;13.30;48.70
28845;DHT22;15976;47.938;7.758;2024-01-30T11:10:59;13.30;48.40
28845;DHT22;15976;47.938;7.758;2024-01-30T11:13:30;13.40;48.60
28845;DHT22;15976;47.938;7.758;2024-01-30T11:16:02;13.50;48.60
28845;DHT22;15976;47.938;7.758;2024-01-30T11:18:30;13.70;48.50
28845;DHT22;15976;47.938;7.758;2024-01-30T11:20:58;13.70;48.00
28845;DHT22;15976;47.938;7.758;2024-01-30T11:23:28;13.90;47.90
28845;DHT22;15976;47.938;7.758;2024-01-30T11:25:56;14.00;47.70
28845;DHT22;15976;47.938;7.758;2024-01-30T11:28:24;14.10;47.60
28845;DHT22;15976;47.938;7.758;2024-01-30T11:31:07;14.20;47.70
28845;DHT22;15976;47.938;7.758;2024-01-30T11:33:35;14.30;47.60
28845;DHT22;15976;47.938;7.758;2024-01-30T11:36:04;14.40;47.80
28845;DHT22;15976;47.938;7.758;2024-01-30T11:38:34;14.50;47.60
28845;DHT22;15976;47.938;7.758;2024-01-30T11:41:02;14.60;47.40
28845;DHT22;15976;47.938;7.758;2024-01-30T11:43:30;14.50;47.40
28845;DHT22;15976;47.938;7.758;2024-01-30T11:45:57;14.60;47.40
28845;DHT22;15976;47.938;7.758;2024-01-30T11:48:26;14.50;47.40
28845;DHT22;15976;47.938;7.758;2024-01-30T11:50:54;14.50;47.30
28845;DHT22;15976;47.938;7.758;2024-01-30T11:53:21;14.50;47.10
28845;DHT22;15976;47.938;7.758;2024-01-30T11:55:50;14.50;47.10
28845;DHT22;15976;47.938;7.758;2024-01-30T11:58:17;14.50;47.40
28845;DHT22;15976;47.938;7.758;2024-01-30T12:00:55;14.50;47.60
28845;DHT22;15976;47.938;7.758;2024-01-30T12:03:23;14.50;47.80
28845;DHT22;15976;47.938;7.758;2024-01-30T12:05:57;14.60;47.90
28845;DHT22;15976;47.938;7.758;2024-01-30T12:08:28;14.60;48.00
28845;DHT22;15976;47.938;7.758;2024-01-30T12:10:58;14.60;48.30
28845;DHT22;15976;47.938;7.758;2024-01-30T12:13:28;14.70;48.20
28845;DHT22;15976;47.938;7.758;2024-01-30T12:16:00;14.60;48.30
28845;DHT22;15976;47.938;7.758;2024-01-30T12:18:28;14.70;48.70
28845;DHT22;15976;47.938;7.758;2024-01-30T12:20:59;14.70;49.10
28845;DHT22;15976;47.938;7.758;2024-01-30T12:23:29;14.70;49.20
28845;DHT22;15976;47.938;7.758;2024-01-30T12:25:57;14.80;49.40
28845;DHT22;15976;47.938;7.758;2024-01-30T12:28:24;14.70;49.40
28845;DHT22;15976;47.938;7.758;2024-01-30T12:30:56;14.70;49.60
28845;DHT22;15976;47.938;7.758;2024-01-30T12:33:26;14.70;49.30
28845;DHT22;15976;47.938;7.758;2024-01-30T12:35:55;14.70;49.30
28845;DHT22;15976;47.938;7.758;2024-01-30T12:38:29;14.70;49.10
28845;DHT22;15976;47.938;7.758;2024-01-30T12:40:56;14.70;49.00
28845;DHT22;15976;47.938;7.758;2024-01-30T12:43:25;14.70;49.00
28845;DHT22;15976;47.938;7.758;2024-01-30T12:46:04;14.70;49.00
28845;DHT22;15976;47.938;7.758;2024-01-30T12:48:32;14.70;48.90
28845;DHT22;15976;47.938;7.758;2024-01-30T12:51:00;14.70;48.80
28845;DHT22;15976;47.938;7.758;2024-01-30T12:53:27;14.80;48.60
28845;DHT22;15976;47.938;7.758;2024-01-30T12:55:54;14.80;48.50
28845;DHT22;15976;47.938;7.758;2024-01-30T12:58:21;14.80;48.50
28845;DHT22;15976;47.938;7.758;2024-01-30T13:00:49;14.90;48.60
28845;DHT22;15976;47.938;7.758;2024-01-30T13:03:16;15.00;48.70
28845;DHT22;15976;47.938;7.758;2024-01-30T13:05:43;15.10;48.90
28845;DHT22;15976;47.938;7.758;2024-01-30T13:08:10;15.20;48.90
28845;DHT22;15976;47.938;7.758;2024-01-30T13:10:37;15.20;48.60
28845;DHT22;15976;47.938;7.758;2024-01-30T13:13:05;15.20;48.50
28845;DHT22;15976;47.938;7.758;2024-01-30T13:15:42;15.30;48.50
28845;DHT22;15976;47.938;7.758;2024-01-30T13:18:09;15.30;48.40
28845;DHT22;15976;47.938;7.758;2024-01-30T13:20:36;15.20;48.30
28845;DHT22;15976;47.938;7.758;2024-01-30T13:23:04;15.20;48.60
28845;DHT22;15976;47.938;7.758;2024-01-30T13:25:31;15.10;48.90
28845;DHT22;15976;47.938;7.758;2024-01-30T13:27:58;15.10;49.20
28845;DHT22;15976;47.938;7.758;2024-01-30T13:30:25;15.10;49.40
28845;DHT22;15976;47.938;7.758;2024-01-30T13:32:52;15.10;49.50
28845;DHT22;15976;47.938;7.758;2024-01-30T13:35:19;15.00;49.80
28845;DHT22;15976;47.938;7.758;2024-01-30T13:37:46;15.10;49.90
28845;DHT22;15976;47.938;7.758;2024-01-30T13:40:15;15.10;50.10
28845;DHT22;15976;47.938;7.758;2024-01-30T13:42:43;15.00;50.10
28845;DHT22;15976;47.938;7.758;2024-01-30T13:45:10;15.10;50.20
28845;DHT22;15976;47.938;7.758;2024-01-30T13:47:38;15.10;50.40
28845;DHT22;15976;47.938;7.758;2024-01-30T13:50:05;15.20;50.40
28845;DHT22;15976;47.938;7.758;2024-01-30T13:52:33;15.20;50.60
28845;DHT22;15976;47.938;7.758;2024-01-30T13:55:10;15.20;50.60
28845;DHT22;15976;47.938;7.758;2024-01-30T13:57:37;15.20;50.70
28845;DHT22;15976;47.938;7.758;2024-01-30T14:00:05;15.20;50.80
28845;DHT22;15976;47.938;7.758;2024-01-30T14:02:38;15.20;50.90
28845;DHT22;15976;47.938;7.758;2024-01-30T14:05:05;15.20;51.00
28845;DHT22;15976;47.938;7.758;2024-01-30T14:07:35;15.20;51.10
28845;DHT22;15976;47.938;7.758;2024-01-30T14:10:03;15.20;51.20
28845;DHT22;15976;47.938;7.758;2024-01-30T14:12:34;15.20;51.30
28845;DHT22;15976;47.938;7.758;2024-01-30T14:15:02;15.20;51.40
28845;DHT22;15976;47.938;7.758;2024-01-30T14:17:45;15.10;51.50
28845;DHT22;15976;47.938;7.758;2024-01-30T14:20:12;15.00;51.60
28845;DHT22;15976;47.938;7.758;2024-01-30T14:22:39;14.90;51.80
28845;DHT22;15976;47.938;7.758;2024-01-30T14:25:07;14.90;52.20
28845;DHT22;15976;47.938;7.758;2024-01-30T14:27:35;14.80;52.20
28845;DHT22;15976;47.938;7.758;2024-01-30T14:30:03;14.80;52.30
28845;DHT22;15976;47.938;7.758;2024-01-30T14:32:30;14.80;52.40
28845;DHT22;15976;47.938;7.758;2024-01-30T14:34:57;14.80;52.50
28845;DHT22;15976;47.938;7.758;2024-01-30T14:37:24;14.80;52.50
28845;DHT22;15976;47.938;7.758;2024-01-30T14:39:52;14.80;52.60
28845;DHT22;15976;47.938;7.758;2024-01-30T14:42:19;14.80;52.80
28845;DHT22;15976;47.938;7.758;2024-01-30T14:44:46;14.70;52.80
28845;DHT22;15976;47.938;7.758;2024-01-30T14:47:13;14.70;52.80
28845;DHT22;15976;47.938;7.758;2024-01-30T14:49:41;14.60;52.80
28845;DHT22;15976;47.938;7.758;2024-01-30T14:52:08;14.60;52.90
28845;DHT22;15976;47.938;7.758;2024-01-30T14:54:37;14.60;53.00
28845;DHT22;15976;47.938;7.758;2024-01-30T14:57:05;14.50;53.00
28845;DHT22;15976;47.938;7.758;2024-01-30T14:59:32;14.50;52.90
28845;DHT22;15976;47.938;7.758;2024-01-30T15:02:01;14.40;52.70
28845;DHT22;15976;47.938;7.758;2024-01-30T15:04:28;14.40;52.60
28845;DHT22;15976;47.938;7.758;2024-01-30T15:06:55;14.40;52.40
28845;DHT22;15976;47.938;7.758;2024-01-30T15:09:22;14.30;52.30
28845;DHT22;15976;47.938;7.758;2024-01-30T15:11:52;14.30;52.10
28845;DHT22;15976;47.938;7.758;2024-01-30T15:14:19;14.30;52.00
28845;DHT22;15976;47.938;7.758;2024-01-30T15:16:46;14.30;51.70
28845;DHT22;15976;47.938;7.758;2024-01-30T15:19:13;14.20;51.50
28845;DHT22;15976;47.938;7.758;2024-01-30T15:21:41;14.20;51.50
28845;DHT22;15976;47.938;7.758;2024-01-30T15:24:08;14.20;51.60
28845;DHT22;15976;47.938;7.758;2024-01-30T15:26:35;14.20;51.60
28845;DHT22;15976;47.938;7.758;2024-01-30T15:29:02;14.10;51.60
28845;DHT22;15976;47.938;7.758;2024-01-30T15:31:30;14.10;51.50
28845;DHT22;15976;47.938;7.758;2024-01-30T15:33:57;14.10;51.30
28845;DHT22;15976;47.938;7.758;2024-01-30T15:36:24;14.10;51.70
28845;DHT22;15976;47.938;7.758;2024-01-30T15:38:51;14.10;51.00